sensor_id;sensor_type;location;lat;lon;timestamp;temperature;humidity
37242;DHT22;23135;51.078;12.108;2023-06-19T00:00:08;17.30;99.90
37242;DHT22;23135;51.078;12.108;2023-06-19T00:02:41;17.30;99.90
37242;DHT22;23135;51.078;12.108;2023-06-19T00:05:08;17.20;99.90
37242;DHT22;23135;51.078;12.108;2023-06-19T00:07:35;17.10;99.90
37242;DHT22;23135;51.078;12.108;2023-06-19T00:10:01;17.10;99.90
37242;DHT22;23135;51.078;12.108;2023-06-19T00:12:26;17.10;99.90
37242;DHT22;23135;51.078;12.108;2023-06-19T00:14:52;17.10;99.90
37242;DHT22;23135;51.078;12.108;2023-06-19T00:17:17;17.20;99.90
37242;DHT22;23135;51.078;12.108;2023-06-19T00:19:43;17.30;99.90
37242;DHT22;23135;51.078;12.108;2023-06-19T00:22:09;17.20;99.90
37242;DHT22;23135;51.078;12.108;2023-06-19T00:24:35;17.30;99.90
37242;DHT22;23135;51.078;12.108;2023-06-19T00:27:00;17.20;99.90
37242;DHT22;23135;51.078;12.108;2023-06-19T00:29:28;17.20;99.90
37242;DHT22;23135;51.078;12.108;2023-06-19T00:31:53;17.20;99.90
37242;DHT22;23135;51.078;12.108;2023-06-19T00:34:19;17.30;99.90
37242;DHT22;23135;51.078;12.108;2023-06-19T00:36:44;17.20;99.90
37242;DHT22;23135;51.078;12.108;2023-06-19T00:39:10;17.20;99.90
37242;DHT22;23135;51.078;12.108;2023-06-19T00:41:36;17.20;99.90
37242;DHT22;23135;51.078;12.108;2023-06-19T00:44:03;17.20;99.90
37242;DHT22;23135;51.078;12.108;2023-06-19T00:46:28;17.20;99.90
37242;DHT22;23135;51.078;12.108;2023-06-19T00:48:54;17.20;99.90
37242;DHT22;23135;51.078;12.108;2023-06-19T00:51:20;17.30;99.90
37242;DHT22;23135;51.078;12.108;2023-06-19T00:53:46;17.30;99.90
37242;DHT22;23135;51.078;12.108;2023-06-19T00:56:12;17.40;99.90
37242;DHT22;23135;51.078;12.108;2023-06-19T00:58:38;17.30;99.90
37242;DHT22;23135;51.078;12.108;2023-06-19T01:01:04;17.40;99.90
37242;DHT22;23135;51.078;12.108;2023-06-19T01:03:30;17.40;99.90
37242;DHT22;23135;51.078;12.108;2023-06-19T01:05:56;17.40;99.90
37242;DHT22;23135;51.078;12.108;2023-06-19T01:11:11;17.40;99.90
37242;DHT22;23135;51.078;12.108;2023-06-19T01:13:47;17.40;99.90
37242;DHT22;23135;51.078;12.108;2023-06-19T01:16:13;17.40;99.90
37242;DHT22;23135;51.078;12.108;2023-06-19T01:18:40;17.40;99.90
37242;DHT22;23135;51.078;12.108;2023-06-19T01:21:23;17.40;99.90
37242;DHT22;23135;51.078;12.108;2023-06-19T01:23:49;17.50;99.90
37242;DHT22;23135;51.078;12.108;2023-06-19T01:26:16;17.50;99.90
37242;DHT22;23135;51.078;12.108;2023-06-19T01:28:42;17.40;99.90
37242;DHT22;23135;51.078;12.108;2023-06-19T01:31:15;17.40;99.90
37242;DHT22;23135;51.078;12.108;2023-06-19T01:33:43;17.40;99.90
37242;DHT22;23135;51.078;12.108;2023-06-19T01:36:10;17.40;99.90
37242;DHT22;23135;51.078;12.108;2023-06-19T01:38:36;17.40;99.90
37242;DHT22;23135;51.078;12.108;2023-06-19T01:41:04;17.40;99.90
37242;DHT22;23135;51.078;12.108;2023-06-19T01:43:32;17.40;99.90
37242;DHT22;23135;51.078;12.108;2023-06-19T01:45:58;17.40;99.90
37242;DHT22;23135;51.078;12.108;2023-06-19T01:48:24;17.30;99.90
37242;DHT22;23135;51.078;12.108;2023-06-19T01:50:50;17.40;99.90
37242;DHT22;23135;51.078;12.108;2023-06-19T01:53:16;17.40;99.90
37242;DHT22;23135;51.078;12.108;2023-06-19T01:55:42;17.40;99.90
37242;DHT22;23135;51.078;12.108;2023-06-19T01:58:08;17.40;99.90
37242;DHT22;23135;51.078;12.108;2023-06-19T02:00:33;17.40;99.90
37242;DHT22;23135;51.078;12.108;2023-06-19T02:03:03;17.40;99.90
37242;DHT22;23135;51.078;12.108;2023-06-19T02:05:30;17.40;99.90
37242;DHT22;23135;51.078;12.108;2023-06-19T02:07:56;17.30;99.90
37242;DHT22;23135;51.078;12.108;2023-06-19T02:10:22;17.30;99.90
37242;DHT22;23135;51.078;12.108;2023-06-19T02:12:47;17.30;99.90
37242;DHT22;23135;51.078;12.108;2023-06-19T02:15:13;17.40;99.90
37242;DHT22;23135;51.078;12.108;2023-06-19T02:17:39;17.50;99.90
37242;DHT22;23135;51.078;12.108;2023-06-19T02:20:05;17.50;99.90
37242;DHT22;23135;51.078;12.108;2023-06-19T02:22:35;17.60;99.90
37242;DHT22;23135;51.078;12.108;2023-06-19T02:25:00;17.50;99.90
37242;DHT22;23135;51.078;12.108;2023-06-19T02:27:26;17.50;99.90
37242;DHT22;23135;51.078;12.108;2023-06-19T02:29:51;17.50;99.90
37242;DHT22;23135;51.078;12.108;2023-06-19T02:32:17;17.40;99.90
37242;DHT22;23135;51.078;12.108;2023-06-19T02:34:42;17.50;99.90
37242;DHT22;23135;51.078;12.108;2023-06-19T02:37:08;17.50;99.90
37242;DHT22;23135;51.078;12.108;2023-06-19T02:39:33;17.60;99.90
37242;DHT22;23135;51.078;12.108;2023-06-19T02:41:59;17.60;99.90
37242;DHT22;23135;51.078;12.108;2023-06-19T02:44:25;17.60;99.90
37242;DHT22;23135;51.078;12.108;2023-06-19T02:46:50;17.70;99.90
37242;DHT22;23135;51.078;12.108;2023-06-19T02:49:16;17.70;99.90
37242;DHT22;23135;51.078;12.108;2023-06-19T02:51:41;17.60;99.90
37242;DHT22;23135;51.078;12.108;2023-06-19T02:54:07;17.60;99.90
37242;DHT22;23135;51.078;12.108;2023-06-19T02:56:33;17.50;99.90
37242;DHT22;23135;51.078;12.108;2023-06-19T02:58:58;17.60;99.90
37242;DHT22;23135;51.078;12.108;2023-06-19T03:01:24;17.60;99.90
37242;DHT22;23135;51.078;12.108;2023-06-19T03:03:49;17.50;99.90
37242;DHT22;23135;51.078;12.108;2023-06-19T03:06:17;17.50;99.90
37242;DHT22;23135;51.078;12.108;2023-06-19T03:08:43;17.50;99.90
37242;DHT22;23135;51.078;12.108;2023-06-19T03:11:09;17.50;99.90
37242;DHT22;23135;51.078;12.108;2023-06-19T03:13:46;17.50;99.90
37242;DHT22;23135;51.078;12.108;2023-06-19T03:16:12;17.50;99.90
37242;DHT22;23135;51.078;12.108;2023-06-19T03:18:38;17.50;99.90
37242;DHT22;23135;51.078;12.108;2023-06-19T03:21:03;17.50;99.90
37242;DHT22;23135;51.078;12.108;2023-06-19T03:23:29;17.50;99.90
37242;DHT22;23135;51.078;12.108;2023-06-19T03:25:55;17.50;99.90
37242;DHT22;23135;51.078;12.108;2023-06-19T03:28:21;17.50;99.90
37242;DHT22;23135;51.078;12.108;2023-06-19T03:30:46;17.60;99.90
37242;DHT22;23135;51.078;12.108;2023-06-19T03:33:12;17.60;99.90
37242;DHT22;23135;51.078;12.108;2023-06-19T03:35:37;17.60;99.90
37242;DHT22;23135;51.078;12.108;2023-06-19T03:38:03;17.60;99.90
37242;DHT22;23135;51.078;12.108;2023-06-19T03:40:29;17.60;99.90
37242;DHT22;23135;51.078;12.108;2023-06-19T03:42:54;17.60;99.90
37242;DHT22;23135;51.078;12.108;2023-06-19T03:45:20;17.60;99.90
37242;DHT22;23135;51.078;12.108;2023-06-19T03:47:45;17.50;99.90
37242;DHT22;23135;51.078;12.108;2023-06-19T03:50:11;17.50;99.90
37242;DHT22;23135;51.078;12.108;2023-06-19T03:52:37;17.40;99.90
37242;DHT22;23135;51.078;12.108;2023-06-19T03:55:03;17.30;99.90
37242;DHT22;23135;51.078;12.108;2023-06-19T03:57:29;17.30;99.90
37242;DHT22;23135;51.078;12.108;2023-06-19T03:59:54;17.30;99.90
37242;DHT22;23135;51.078;12.108;2023-06-19T04:02:20;17.30;99.90
37242;DHT22;23135;51.078;12.108;2023-06-19T04:04:45;17.30;99.90
37242;DHT22;23135;51.078;12.108;2023-06-19T04:07:11;17.20;99.90
37242;DHT22;23135;51.078;12.108;2023-06-19T04:09:37;17.20;99.90
37242;DHT22;23135;51.078;12.108;2023-06-19T04:12:02;17.20;99.90
37242;DHT22;23135;51.078;12.108;2023-06-19T04:14:28;17.20;99.90
37242;DHT22;23135;51.078;12.108;2023-06-19T04:16:53;17.20;99.90
37242;DHT22;23135;51.078;12.108;2023-06-19T04:19:19;17.30;99.90
37242;DHT22;23135;51.078;12.108;2023-06-19T04:21:45;17.30;99.90
37242;DHT22;23135;51.078;12.108;2023-06-19T04:24:10;17.30;99.90
37242;DHT22;23135;51.078;12.108;2023-06-19T04:26:36;17.40;99.90
37242;DHT22;23135;51.078;12.108;2023-06-19T04:29:02;17.50;99.90
37242;DHT22;23135;51.078;12.108;2023-06-19T04:31:28;17.50;99.90
37242;DHT22;23135;51.078;12.108;2023-06-19T04:33:54;17.50;99.90
37242;DHT22;23135;51.078;12.108;2023-06-19T04:36:22;17.50;99.90
37242;DHT22;23135;51.078;12.108;2023-06-19T04:38:48;17.60;99.90
37242;DHT22;23135;51.078;12.108;2023-06-19T04:41:17;17.60;99.90
37242;DHT22;23135;51.078;12.108;2023-06-19T04:43:42;17.60;99.90
37242;DHT22;23135;51.078;12.108;2023-06-19T04:46:08;17.60;99.90
37242;DHT22;23135;51.078;12.108;2023-06-19T04:48:34;17.60;99.90
37242;DHT22;23135;51.078;12.108;2023-06-19T04:51:02;17.60;99.90
37242;DHT22;23135;51.078;12.108;2023-06-19T04:53:28;17.50;99.90
37242;DHT22;23135;51.078;12.108;2023-06-19T04:55:54;17.40;99.90
37242;DHT22;23135;51.078;12.108;2023-06-19T04:58:21;17.40;99.90
37242;DHT22;23135;51.078;12.108;2023-06-19T05:00:47;17.30;99.90
37242;DHT22;23135;51.078;12.108;2023-06-19T05:03:17;17.40;99.90
37242;DHT22;23135;51.078;12.108;2023-06-19T05:05:43;17.30;99.90
37242;DHT22;23135;51.078;12.108;2023-06-19T05:08:09;17.40;99.90
37242;DHT22;23135;51.078;12.108;2023-06-19T05:10:35;17.50;99.90
37242;DHT22;23135;51.078;12.108;2023-06-19T05:13:01;17.60;99.90
37242;DHT22;23135;51.078;12.108;2023-06-19T05:15:27;17.70;99.90
37242;DHT22;23135;51.078;12.108;2023-06-19T05:17:53;17.70;99.90
37242;DHT22;23135;51.078;12.108;2023-06-19T05:20:19;17.70;99.90
37242;DHT22;23135;51.078;12.108;2023-06-19T05:22:45;17.90;99.90
37242;DHT22;23135;51.078;12.108;2023-06-19T05:25:11;17.90;99.90
37242;DHT22;23135;51.078;12.108;2023-06-19T05:27:36;17.90;99.90
37242;DHT22;23135;51.078;12.108;2023-06-19T05:30:02;17.90;99.90
37242;DHT22;23135;51.078;12.108;2023-06-19T05:32:29;17.90;99.90
37242;DHT22;23135;51.078;12.108;2023-06-19T05:34:55;18.00;99.90
37242;DHT22;23135;51.078;12.108;2023-06-19T05:37:20;17.90;99.90
37242;DHT22;23135;51.078;12.108;2023-06-19T05:39:47;17.80;99.90
37242;DHT22;23135;51.078;12.108;2023-06-19T05:42:13;17.80;99.90
37242;DHT22;23135;51.078;12.108;2023-06-19T05:44:39;17.80;99.90
37242;DHT22;23135;51.078;12.108;2023-06-19T05:47:05;17.80;99.90
37242;DHT22;23135;51.078;12.108;2023-06-19T05:49:31;17.90;99.90
37242;DHT22;23135;51.078;12.108;2023-06-19T05:51:56;18.00;99.90
37242;DHT22;23135;51.078;12.108;2023-06-19T05:54:25;18.20;99.90
37242;DHT22;23135;51.078;12.108;2023-06-19T05:56:50;18.30;99.90
37242;DHT22;23135;51.078;12.108;2023-06-19T05:59:16;18.50;99.90
37242;DHT22;23135;51.078;12.108;2023-06-19T06:01:41;18.60;99.90
37242;DHT22;23135;51.078;12.108;2023-06-19T06:04:07;18.60;99.90
37242;DHT22;23135;51.078;12.108;2023-06-19T06:06:33;18.60;99.90
37242;DHT22;23135;51.078;12.108;2023-06-19T06:08:58;18.70;99.90
37242;DHT22;23135;51.078;12.108;2023-06-19T06:11:24;18.70;99.90
37242;DHT22;23135;51.078;12.108;2023-06-19T06:13:49;18.70;99.90
37242;DHT22;23135;51.078;12.108;2023-06-19T06:16:15;18.70;99.90
37242;DHT22;23135;51.078;12.108;2023-06-19T06:18:41;18.80;99.90
37242;DHT22;23135;51.078;12.108;2023-06-19T06:21:06;18.90;99.90
37242;DHT22;23135;51.078;12.108;2023-06-19T06:23:32;18.90;99.90
37242;DHT22;23135;51.078;12.108;2023-06-19T06:25:57;19.00;99.90
37242;DHT22;23135;51.078;12.108;2023-06-19T06:28:27;18.90;99.90
37242;DHT22;23135;51.078;12.108;2023-06-19T06:30:53;18.90;99.90
37242;DHT22;23135;51.078;12.108;2023-06-19T06:33:19;18.70;99.90
37242;DHT22;23135;51.078;12.108;2023-06-19T06:35:44;18.70;99.90
37242;DHT22;23135;51.078;12.108;2023-06-19T06:38:10;18.60;99.90
37242;DHT22;23135;51.078;12.108;2023-06-19T06:40:36;18.60;99.90
37242;DHT22;23135;51.078;12.108;2023-06-19T06:43:01;18.60;99.90
37242;DHT22;23135;51.078;12.108;2023-06-19T06:45:27;18.60;99.90
37242;DHT22;23135;51.078;12.108;2023-06-19T06:47:53;18.70;99.90
37242;DHT22;23135;51.078;12.108;2023-06-19T06:50:18;18.70;99.90
37242;DHT22;23135;51.078;12.108;2023-06-19T06:52:44;18.80;99.90
37242;DHT22;23135;51.078;12.108;2023-06-19T06:55:09;18.80;99.90
37242;DHT22;23135;51.078;12.108;2023-06-19T06:57:35;18.60;99.90
37242;DHT22;23135;51.078;12.108;2023-06-19T07:00:02;18.60;99.90
37242;DHT22;23135;51.078;12.108;2023-06-19T07:02:28;18.70;99.90
37242;DHT22;23135;51.078;12.108;2023-06-19T07:04:55;18.80;99.90
37242;DHT22;23135;51.078;12.108;2023-06-19T07:07:20;18.80;99.90
37242;DHT22;23135;51.078;12.108;2023-06-19T07:09:46;18.90;99.90
37242;DHT22;23135;51.078;12.108;2023-06-19T07:12:12;18.90;99.90
37242;DHT22;23135;51.078;12.108;2023-06-19T07:14:38;18.90;99.90
37242;DHT22;23135;51.078;12.108;2023-06-19T07:17:04;19.10;99.90
37242;DHT22;23135;51.078;12.108;2023-06-19T07:19:32;19.20;99.90
37242;DHT22;23135;51.078;12.108;2023-06-19T07:21:58;19.30;99.90
37242;DHT22;23135;51.078;12.108;2023-06-19T07:24:24;19.40;99.90
37242;DHT22;23135;51.078;12.108;2023-06-19T07:26:50;19.50;99.90
37242;DHT22;23135;51.078;12.108;2023-06-19T07:29:15;19.60;99.90
37242;DHT22;23135;51.078;12.108;2023-06-19T07:31:41;19.80;99.90
37242;DHT22;23135;51.078;12.108;2023-06-19T07:34:08;19.90;99.90
37242;DHT22;23135;51.078;12.108;2023-06-19T07:36:34;20.10;99.90
37242;DHT22;23135;51.078;12.108;2023-06-19T07:38:59;20.20;99.90
37242;DHT22;23135;51.078;12.108;2023-06-19T07:41:25;20.50;99.90
37242;DHT22;23135;51.078;12.108;2023-06-19T07:43:50;20.80;99.90
37242;DHT22;23135;51.078;12.108;2023-06-19T07:46:16;21.10;99.90
37242;DHT22;23135;51.078;12.108;2023-06-19T07:48:42;21.40;99.90
37242;DHT22;23135;51.078;12.108;2023-06-19T07:51:08;21.60;99.90
37242;DHT22;23135;51.078;12.108;2023-06-19T07:53:33;21.70;99.90
37242;DHT22;23135;51.078;12.108;2023-06-19T07:55:59;21.90;99.90
37242;DHT22;23135;51.078;12.108;2023-06-19T07:58:24;22.00;99.90
37242;DHT22;23135;51.078;12.108;2023-06-19T08:00:50;22.10;99.90
37242;DHT22;23135;51.078;12.108;2023-06-19T08:03:16;22.20;99.90
37242;DHT22;23135;51.078;12.108;2023-06-19T08:05:41;22.30;99.90
37242;DHT22;23135;51.078;12.108;2023-06-19T08:08:07;22.40;99.90
37242;DHT22;23135;51.078;12.108;2023-06-19T08:10:32;22.60;99.90
37242;DHT22;23135;51.078;12.108;2023-06-19T08:12:58;22.90;99.90
37242;DHT22;23135;51.078;12.108;2023-06-19T08:15:23;23.10;99.90
37242;DHT22;23135;51.078;12.108;2023-06-19T08:17:49;23.60;99.90
37242;DHT22;23135;51.078;12.108;2023-06-19T08:20:15;24.20;99.40
37242;DHT22;23135;51.078;12.108;2023-06-19T08:22:41;24.40;98.70
37242;DHT22;23135;51.078;12.108;2023-06-19T08:25:08;24.60;98.40
37242;DHT22;23135;51.078;12.108;2023-06-19T08:27:33;24.90;97.50
37242;DHT22;23135;51.078;12.108;2023-06-19T08:29:59;25.20;96.20
37242;DHT22;23135;51.078;12.108;2023-06-19T08:32:24;25.50;95.70
37242;DHT22;23135;51.078;12.108;2023-06-19T08:34:50;25.70;95.00
37242;DHT22;23135;51.078;12.108;2023-06-19T08:37:17;25.50;94.40
37242;DHT22;23135;51.078;12.108;2023-06-19T08:39:43;25.30;94.00
37242;DHT22;23135;51.078;12.108;2023-06-19T08:42:09;25.30;94.80
37242;DHT22;23135;51.078;12.108;2023-06-19T08:44:35;25.40;93.90
37242;DHT22;23135;51.078;12.108;2023-06-19T08:47:05;25.40;94.40
37242;DHT22;23135;51.078;12.108;2023-06-19T08:49:35;25.50;93.60
37242;DHT22;23135;51.078;12.108;2023-06-19T08:52:01;25.50;94.40
37242;DHT22;23135;51.078;12.108;2023-06-19T08:54:28;25.40;93.70
37242;DHT22;23135;51.078;12.108;2023-06-19T08:56:53;25.30;94.10
37242;DHT22;23135;51.078;12.108;2023-06-19T08:59:20;25.30;93.30
37242;DHT22;23135;51.078;12.108;2023-06-19T09:01:49;25.20;94.30
37242;DHT22;23135;51.078;12.108;2023-06-19T09:04:18;25.20;93.50
37242;DHT22;23135;51.078;12.108;2023-06-19T09:06:52;25.20;93.80
37242;DHT22;23135;51.078;12.108;2023-06-19T09:09:22;25.20;93.70
37242;DHT22;23135;51.078;12.108;2023-06-19T09:12:04;25.30;93.90
37242;DHT22;23135;51.078;12.108;2023-06-19T09:14:40;25.20;94.00
37242;DHT22;23135;51.078;12.108;2023-06-19T09:17:07;25.40;93.60
37242;DHT22;23135;51.078;12.108;2023-06-19T09:19:35;25.70;93.80
37242;DHT22;23135;51.078;12.108;2023-06-19T09:22:02;26.00;93.30
37242;DHT22;23135;51.078;12.108;2023-06-19T09:24:39;26.30;93.60
37242;DHT22;23135;51.078;12.108;2023-06-19T09:27:15;26.80;93.10
37242;DHT22;23135;51.078;12.108;2023-06-19T09:29:48;27.10;92.10
37242;DHT22;23135;51.078;12.108;2023-06-19T09:32:21;27.60;92.40
37242;DHT22;23135;51.078;12.108;2023-06-19T09:34:47;27.40;90.50
37242;DHT22;23135;51.078;12.108;2023-06-19T09:37:14;27.40;90.00
37242;DHT22;23135;51.078;12.108;2023-06-19T09:39:41;27.10;90.00
37242;DHT22;23135;51.078;12.108;2023-06-19T09:42:07;27.10;89.10
37242;DHT22;23135;51.078;12.108;2023-06-19T09:44:40;27.30;90.30
37242;DHT22;23135;51.078;12.108;2023-06-19T09:47:18;27.80;88.80
37242;DHT22;23135;51.078;12.108;2023-06-19T09:49:54;28.20;88.40
37242;DHT22;23135;51.078;12.108;2023-06-19T09:52:20;28.30;88.10
37242;DHT22;23135;51.078;12.108;2023-06-19T09:54:53;28.10;89.40
37242;DHT22;23135;51.078;12.108;2023-06-19T09:57:20;28.20;88.10
37242;DHT22;23135;51.078;12.108;2023-06-19T09:59:53;28.30;86.80
37242;DHT22;23135;51.078;12.108;2023-06-19T10:02:20;28.30;86.10
37242;DHT22;23135;51.078;12.108;2023-06-19T10:04:49;28.50;86.50
37242;DHT22;23135;51.078;12.108;2023-06-19T10:07:22;28.50;86.70
37242;DHT22;23135;51.078;12.108;2023-06-19T10:10:24;28.90;88.70
37242;DHT22;23135;51.078;12.108;2023-06-19T10:12:45;29.20;86.30
37242;DHT22;23135;51.078;12.108;2023-06-19T10:15:30;28.60;84.60
37242;DHT22;23135;51.078;12.108;2023-06-19T10:18:06;28.10;83.80
37242;DHT22;23135;51.078;12.108;2023-06-19T10:20:36;28.10;86.20
37242;DHT22;23135;51.078;12.108;2023-06-19T10:23:17;28.10;85.70
37242;DHT22;23135;51.078;12.108;2023-06-19T10:25:45;27.90;83.50
37242;DHT22;23135;51.078;12.108;2023-06-19T10:28:25;27.50;85.60
37242;DHT22;23135;51.078;12.108;2023-06-19T10:30:56;27.50;87.40
37242;DHT22;23135;51.078;12.108;2023-06-19T10:33:27;27.50;89.50
37242;DHT22;23135;51.078;12.108;2023-06-19T10:35:53;27.30;86.60
37242;DHT22;23135;51.078;12.108;2023-06-19T10:38:19;27.20;85.20
37242;DHT22;23135;51.078;12.108;2023-06-19T10:40:45;27.20;85.10
37242;DHT22;23135;51.078;12.108;2023-06-19T10:43:12;27.10;85.20
37242;DHT22;23135;51.078;12.108;2023-06-19T10:45:38;27.10;87.30
37242;DHT22;23135;51.078;12.108;2023-06-19T10:48:04;27.20;86.30
37242;DHT22;23135;51.078;12.108;2023-06-19T10:50:34;27.10;86.10
37242;DHT22;23135;51.078;12.108;2023-06-19T10:53:01;27.00;85.70
37242;DHT22;23135;51.078;12.108;2023-06-19T10:55:26;26.90;85.80
37242;DHT22;23135;51.078;12.108;2023-06-19T10:57:52;26.90;85.70
37242;DHT22;23135;51.078;12.108;2023-06-19T11:00:28;26.90;86.00
37242;DHT22;23135;51.078;12.108;2023-06-19T11:02:58;27.00;86.90
37242;DHT22;23135;51.078;12.108;2023-06-19T11:05:25;27.20;85.30
37242;DHT22;23135;51.078;12.108;2023-06-19T11:07:58;27.10;86.40
37242;DHT22;23135;51.078;12.108;2023-06-19T11:10:28;27.30;85.80
37242;DHT22;23135;51.078;12.108;2023-06-19T11:12:55;27.40;86.70
37242;DHT22;23135;51.078;12.108;2023-06-19T11:15:31;27.60;85.80
37242;DHT22;23135;51.078;12.108;2023-06-19T11:17:58;27.80;83.80
37242;DHT22;23135;51.078;12.108;2023-06-19T11:20:24;28.00;83.60
37242;DHT22;23135;51.078;12.108;2023-06-19T11:22:58;28.30;84.30
37242;DHT22;23135;51.078;12.108;2023-06-19T11:25:34;28.90;83.50
37242;DHT22;23135;51.078;12.108;2023-06-19T11:28:00;29.50;80.10
37242;DHT22;23135;51.078;12.108;2023-06-19T11:30:33;29.90;79.20
37242;DHT22;23135;51.078;12.108;2023-06-19T11:32:59;30.30;81.40
37242;DHT22;23135;51.078;12.108;2023-06-19T11:35:25;30.70;80.50
37242;DHT22;23135;51.078;12.108;2023-06-19T11:37:59;30.80;78.80
37242;DHT22;23135;51.078;12.108;2023-06-19T11:40:24;30.80;77.90
37242;DHT22;23135;51.078;12.108;2023-06-19T11:42:53;30.60;78.20
37242;DHT22;23135;51.078;12.108;2023-06-19T11:45:21;30.40;77.40
37242;DHT22;23135;51.078;12.108;2023-06-19T11:47:48;30.50;79.40
37242;DHT22;23135;51.078;12.108;2023-06-19T11:50:14;30.70;77.60
37242;DHT22;23135;51.078;12.108;2023-06-19T11:52:45;30.70;77.20
37242;DHT22;23135;51.078;12.108;2023-06-19T11:55:10;31.10;79.40
37242;DHT22;23135;51.078;12.108;2023-06-19T11:57:36;31.30;77.40
37242;DHT22;23135;51.078;12.108;2023-06-19T12:00:03;31.00;76.50
37242;DHT22;23135;51.078;12.108;2023-06-19T12:02:32;30.90;75.10
37242;DHT22;23135;51.078;12.108;2023-06-19T12:04:58;31.00;75.40
37242;DHT22;23135;51.078;12.108;2023-06-19T12:07:24;31.00;78.10
37242;DHT22;23135;51.078;12.108;2023-06-19T12:09:51;30.90;76.80
37242;DHT22;23135;51.078;12.108;2023-06-19T12:12:17;31.10;75.80
37242;DHT22;23135;51.078;12.108;2023-06-19T12:14:42;31.50;77.30
37242;DHT22;23135;51.078;12.108;2023-06-19T12:17:08;31.50;76.00
37242;DHT22;23135;51.078;12.108;2023-06-19T12:19:34;32.00;77.70
37242;DHT22;23135;51.078;12.108;2023-06-19T12:21:59;32.00;74.80
37242;DHT22;23135;51.078;12.108;2023-06-19T12:24:25;32.10;75.30
37242;DHT22;23135;51.078;12.108;2023-06-19T12:26:50;31.90;74.30
37242;DHT22;23135;51.078;12.108;2023-06-19T12:29:16;31.80;75.00
37242;DHT22;23135;51.078;12.108;2023-06-19T12:31:43;32.00;76.20
37242;DHT22;23135;51.078;12.108;2023-06-19T12:34:09;32.20;75.60
37242;DHT22;23135;51.078;12.108;2023-06-19T12:36:36;31.90;73.70
37242;DHT22;23135;51.078;12.108;2023-06-19T12:39:02;32.00;73.60
37242;DHT22;23135;51.078;12.108;2023-06-19T12:41:31;32.00;73.90
37242;DHT22;23135;51.078;12.108;2023-06-19T12:43:56;32.50;74.70
37242;DHT22;23135;51.078;12.108;2023-06-19T12:46:22;32.90;73.20
37242;DHT22;23135;51.078;12.108;2023-06-19T12:48:47;33.40;74.20
37242;DHT22;23135;51.078;12.108;2023-06-19T12:51:17;33.10;72.00
37242;DHT22;23135;51.078;12.108;2023-06-19T12:53:43;33.00;72.40
37242;DHT22;23135;51.078;12.108;2023-06-19T12:56:09;32.70;73.70
37242;DHT22;23135;51.078;12.108;2023-06-19T12:58:34;32.30;74.20
37242;DHT22;23135;51.078;12.108;2023-06-19T13:01:00;32.20;72.50
37242;DHT22;23135;51.078;12.108;2023-06-19T13:03:25;32.10;70.70
37242;DHT22;23135;51.078;12.108;2023-06-19T13:05:51;32.40;72.10
37242;DHT22;23135;51.078;12.108;2023-06-19T13:08:16;32.40;70.70
37242;DHT22;23135;51.078;12.108;2023-06-19T13:10:42;32.50;71.30
37242;DHT22;23135;51.078;12.108;2023-06-19T13:13:08;32.50;71.20
37242;DHT22;23135;51.078;12.108;2023-06-19T13:15:35;32.40;72.00
37242;DHT22;23135;51.078;12.108;2023-06-19T13:18:01;32.40;72.70
37242;DHT22;23135;51.078;12.108;2023-06-19T13:20:27;32.60;70.20
37242;DHT22;23135;51.078;12.108;2023-06-19T13:22:52;32.30;72.40
37242;DHT22;23135;51.078;12.108;2023-06-19T13:25:19;32.50;71.80
37242;DHT22;23135;51.078;12.108;2023-06-19T13:27:45;32.20;71.50
37242;DHT22;23135;51.078;12.108;2023-06-19T13:30:11;32.00;72.60
37242;DHT22;23135;51.078;12.108;2023-06-19T13:32:37;31.80;72.10
37242;DHT22;23135;51.078;12.108;2023-06-19T13:35:04;31.70;70.50
37242;DHT22;23135;51.078;12.108;2023-06-19T13:37:30;31.90;71.40
37242;DHT22;23135;51.078;12.108;2023-06-19T13:39:55;31.90;71.30
37242;DHT22;23135;51.078;12.108;2023-06-19T13:42:21;31.90;71.50
37242;DHT22;23135;51.078;12.108;2023-06-19T13:44:47;31.80;72.10
37242;DHT22;23135;51.078;12.108;2023-06-19T13:47:12;31.60;72.90
37242;DHT22;23135;51.078;12.108;2023-06-19T13:49:38;31.70;71.00
37242;DHT22;23135;51.078;12.108;2023-06-19T13:52:03;32.00;72.80
37242;DHT22;23135;51.078;12.108;2023-06-19T13:54:30;32.30;71.90
37242;DHT22;23135;51.078;12.108;2023-06-19T13:56:56;32.10;69.70
37242;DHT22;23135;51.078;12.108;2023-06-19T13:59:21;32.30;70.40
37242;DHT22;23135;51.078;12.108;2023-06-19T14:01:47;32.60;70.60
37242;DHT22;23135;51.078;12.108;2023-06-19T14:04:12;32.60;70.50
37242;DHT22;23135;51.078;12.108;2023-06-19T14:06:38;32.70;72.90
37242;DHT22;23135;51.078;12.108;2023-06-19T14:09:04;32.60;73.60
37242;DHT22;23135;51.078;12.108;2023-06-19T14:11:29;32.80;73.10
37242;DHT22;23135;51.078;12.108;2023-06-19T14:13:55;32.50;71.10
37242;DHT22;23135;51.078;12.108;2023-06-19T14:16:21;32.30;72.50
37242;DHT22;23135;51.078;12.108;2023-06-19T14:18:46;32.30;71.30
37242;DHT22;23135;51.078;12.108;2023-06-19T14:21:12;31.90;72.50
37242;DHT22;23135;51.078;12.108;2023-06-19T14:23:38;31.80;72.60
37242;DHT22;23135;51.078;12.108;2023-06-19T14:26:11;31.90;73.10
37242;DHT22;23135;51.078;12.108;2023-06-19T14:28:37;31.90;72.60
37242;DHT22;23135;51.078;12.108;2023-06-19T14:31:04;31.90;72.40
37242;DHT22;23135;51.078;12.108;2023-06-19T14:33:29;32.10;72.30
37242;DHT22;23135;51.078;12.108;2023-06-19T14:35:55;32.00;70.70
37242;DHT22;23135;51.078;12.108;2023-06-19T14:38:20;31.80;71.40
37242;DHT22;23135;51.078;12.108;2023-06-19T14:40:46;31.60;73.00
37242;DHT22;23135;51.078;12.108;2023-06-19T14:43:12;31.40;72.80
37242;DHT22;23135;51.078;12.108;2023-06-19T14:45:37;31.30;72.20
37242;DHT22;23135;51.078;12.108;2023-06-19T14:48:05;31.10;73.90
37242;DHT22;23135;51.078;12.108;2023-06-19T14:50:30;31.50;75.60
37242;DHT22;23135;51.078;12.108;2023-06-19T14:52:56;31.80;74.50
37242;DHT22;23135;51.078;12.108;2023-06-19T14:55:22;31.70;75.10
37242;DHT22;23135;51.078;12.108;2023-06-19T14:57:47;31.30;75.80
37242;DHT22;23135;51.078;12.108;2023-06-19T15:00:13;31.20;75.00
37242;DHT22;23135;51.078;12.108;2023-06-19T15:02:39;31.20;74.50
37242;DHT22;23135;51.078;12.108;2023-06-19T15:05:05;31.20;75.00
37242;DHT22;23135;51.078;12.108;2023-06-19T15:07:31;31.10;74.40
37242;DHT22;23135;51.078;12.108;2023-06-19T15:09:57;30.80;73.90
37242;DHT22;23135;51.078;12.108;2023-06-19T15:12:22;30.80;75.40
37242;DHT22;23135;51.078;12.108;2023-06-19T15:14:48;30.80;75.10